Time;durP1;ratioP1;P1;durP2;ratioP2;P2;SDS_P1;SDS_P2;PMS_P1;PMS_P2;Temp;Humidity;BMP_temperature;BMP_pressure;BME280_temperature;BME280_humidity;BME280_pressure;Samples;Min_cycle;Max_cycle;Signal;HPM_P1;HPM_P2
2022/02/03 00:04:48;;;;;;;8.13;3.43;;;6.60;1.00;;;;;;4984826;28;20473;-74
2022/02/03 00:07:20;;;;;;;8.20;3.20;;;6.60;1.00;;;;;;4987100;28;20456;-74
2022/02/03 00:10:27;;;;;;;8.27;3.47;;;6.60;1.00;;;;;;4990929;28;20417;-74
2022/02/03 00:26:35;;;;;;;6.20;3.53;;;6.70;1.00;;;;;;4926997;29;21138;-74
2022/02/03 00:29:04;;;;;;;17.30;3.33;;;6.70;1.00;;;;;;4932523;29;20515;-74
2022/02/03 00:34:15;;;;;;;6.40;3.47;;;6.80;1.00;;;;;;4932787;29;20435;-74
2022/02/03 00:50:31;;;;;;;14.27;4.00;;;6.90;1.00;;;;;;4960965;28;20417;-74
2022/02/03 00:52:58;;;;;;;6.77;3.80;;;6.90;1.00;;;;;;4961861;28;20418;-74
2022/02/03 00:55:24;;;;;;;5.13;2.90;;;6.90;1.00;;;;;;4962777;28;20492;-74
2022/02/03 00:57:51;;;;;;;10.30;3.70;;;6.80;1.00;;;;;;4970279;28;20417;-74
2022/02/03 01:00:18;;;;;;;6.73;3.63;;;6.80;1.00;;;;;;4972051;28;20231;-74
2022/02/03 01:03:04;;;;;;;4.93;3.53;;;6.90;1.00;;;;;;4988822;28;20442;-74
2022/02/03 01:05:30;;;;;;;7.17;3.53;;;6.90;1.00;;;;;;5035589;28;20418;-74
2022/02/03 01:08:02;;;;;;;6.60;3.17;;;6.90;1.00;;;;;;5047529;28;20460;-74
2022/02/03 01:10:37;;;;;;;6.03;3.53;;;6.90;1.00;;;;;;5035593;28;20410;-74
2022/02/03 01:13:15;;;;;;;9.43;3.67;;;6.90;1.00;;;;;;5036947;28;20407;-74
2022/02/03 01:15:50;;;;;;;7.67;3.47;;;7.00;1.00;;;;;;5038819;28;20418;-74
2022/02/03 01:21:27;;;;;;;7.97;4.00;;;6.90;1.00;;;;;;5052935;28;20454;-74
2022/02/03 01:35:00;;;;;;;6.03;3.20;;;7.10;1.00;;;;;;5047483;28;20421;-74
2022/02/03 01:37:50;;;;;;;12.77;4.03;;;7.10;1.00;;;;;;5034863;28;20516;-75
2022/02/03 01:43:26;;;;;;;14.20;4.00;;;7.00;1.00;;;;;;5035347;28;20430;-75
2022/02/03 01:45:58;;;;;;;11.80;4.13;;;7.00;1.00;;;;;;5044090;28;20429;-74
2022/02/03 01:53:41;;;;;;;11.47;3.97;;;7.10;1.00;;;;;;5041062;28;20521;-74
2022/02/03 01:56:11;;;;;;;5.53;3.77;;;7.10;1.00;;;;;;5052462;28;20411;-74
2022/02/03 01:58:53;;;;;;;10.33;3.60;;;7.10;1.00;;;;;;5034684;28;20423;-74
2022/02/03 02:01:30;;;;;;;12.47;3.87;;;7.00;1.00;;;;;;5039041;28;20987;-74
2022/02/03 02:04:34;;;;;;;4.83;3.20;;;7.20;1.00;;;;;;5053072;28;20475;-74
2022/02/03 02:07:28;;;;;;;15.90;3.90;;;7.10;1.00;;;;;;5001585;28;20480;-74
2022/02/03 02:13:35;;;;;;;8.90;3.70;;;7.20;1.00;;;;;;5002288;28;20495;-74
2022/02/03 02:19:08;;;;;;;6.40;3.47;;;7.20;1.00;;;;;;4998167;28;20448;-74
2022/02/03 02:43:49;;;;;;;9.07;4.87;;;7.40;1.00;;;;;;5022062;28;20470;-74
2022/02/03 02:46:26;;;;;;;12.90;4.90;;;7.40;1.00;;;;;;5034209;28;20523;-74
2022/02/03 02:49:11;;;;;;;8.93;5.23;;;7.40;1.00;;;;;;5042860;28;20925;-74
2022/02/03 02:51:55;;;;;;;16.70;7.40;;;7.50;1.00;;;;;;5037978;28;20426;-74
2022/02/03 03:38:00;;;;;;;21.87;9.17;;;8.30;1.00;;;;;;5033423;28;20560;-74
2022/02/03 03:40:29;;;;;;;21.37;9.93;;;8.30;1.00;;;;;;5033664;28;20885;-74
2022/02/03 03:43:01;;;;;;;14.23;8.70;;;8.30;1.00;;;;;;5034430;28;20423;-74
2022/02/03 03:45:30;;;;;;;17.67;9.60;;;9.30;1.00;;;;;;5033219;28;20889;-74
2022/02/03 03:48:06;;;;;;;14.90;8.27;;;8.40;1.00;;;;;;5047652;28;20944;-74
2022/02/03 03:50:37;;;;;;;13.03;8.07;;;8.40;1.00;;;;;;5033037;28;20587;-74
2022/02/03 03:53:16;;;;;;;16.40;8.20;;;8.40;1.00;;;;;;5042591;28;20413;-74
2022/02/03 03:58:39;;;;;;;10.83;7.27;;;8.40;1.00;;;;;;5032398;28;20404;-74
2022/02/03 04:38:18;;;;;;;22.30;10.80;;;8.60;1.00;;;;;;5055364;28;20478;-74
2022/02/03 04:41:25;;;;;;;23.73;10.50;;;8.60;1.00;;;;;;5043366;28;20430;-74
2022/02/03 05:05:15;;;;;;;19.90;11.27;;;8.70;1.00;;;;;;5035729;28;20480;-74
2022/02/03 05:08:33;;;;;;;21.10;10.40;;;8.70;1.00;;;;;;5048982;28;20490;-74
2022/02/03 05:11:32;;;;;;;20.23;11.00;;;8.70;1.00;;;;;;5036170;28;20514;-74
2022/02/03 05:15:02;;;;;;;22.27;11.20;;;8.80;1.00;;;;;;5047959;28;20417;-75
2022/02/03 05:26:17;;;;;;;19.67;9.80;;;8.70;1.00;;;;;;5011982;28;20420;-74
2022/02/03 05:32:40;;;;;;;15.87;9.30;;;8.70;1.00;;;;;;5013292;28;20411;-75
2022/02/03 05:45:18;;;;;;;19.27;9.20;;;8.80;1.00;;;;;;4823111;29;21046;-75
2022/02/03 06:29:04;;;;;;;13.67;7.87;;;8.60;1.00;;;;;;5048937;28;20638;-75
2022/02/03 06:31:30;;;;;;;10.60;6.90;;;;;;;;;;5054009;28;20889;-75
2022/02/03 06:33:56;;;;;;;11.10;7.27;;;8.60;1.00;;;;;;5033874;28;20395;-75
2022/02/03 06:36:22;;;;;;;13.50;7.80;;;8.50;1.00;;;;;;5035304;28;20543;-76
2022/02/03 06:38:47;;;;;;;16.43;7.43;;;8.60;1.00;;;;;;5042953;28;20523;-75
2022/02/03 06:41:13;;;;;;;12.63;7.70;;;8.60;1.00;;;;;;5052761;28;20172;-75
2022/02/03 06:43:39;;;;;;;14.97;7.90;;;8.60;1.00;;;;;;5042259;28;20234;-75
2022/02/03 06:46:08;;;;;;;20.50;7.40;;;8.60;1.00;;;;;;5039395;28;20172;-75
2022/02/03 06:48:35;;;;;;;9.07;6.47;;;8.60;1.00;;;;;;5052188;28;20571;-73
2022/02/03 06:51:17;;;;;;;19.00;8.07;;;8.70;1.00;;;;;;5038419;28;20431;-75
2022/02/03 06:53:47;;;;;;;10.97;6.63;;;8.70;1.00;;;;;;5036355;28;20415;-76
2022/02/03 06:56:27;;;;;;;11.73;7.60;;;8.70;1.00;;;;;;5042066;28;20453;-76
2022/02/03 06:58:57;;;;;;;12.63;7.97;;;8.80;1.00;;;;;;5042084;28;20421;-78
2022/02/03 07:01:36;;;;;;;12.77;6.83;;;8.80;1.00;;;;;;5033649;28;20414;-74
2022/02/03 07:04:05;;;;;;;15.03;7.53;;;;;;;;;;5048070;28;20461;-76
2022/02/03 07:06:33;;;;;;;11.20;6.43;;;8.80;1.00;;;;;;5045256;28;20450;-75
2022/02/03 07:09:07;;;;;;;9.07;5.77;;;8.80;1.00;;;;;;5035077;28;20418;-75
2022/02/03 07:11:34;;;;;;;11.90;6.77;;;8.80;1.00;;;;;;5051302;28;20977;-75
2022/02/03 07:14:00;;;;;;;12.73;7.57;;;11.20;1.00;;;;;;5037495;28;20418;-75
2022/02/03 07:16:25;;;;;;;13.13;7.27;;;8.90;1.00;;;;;;5046270;28;20423;-75
2022/02/03 07:18:51;;;;;;;10.00;6.80;;;8.90;1.00;;;;;;5040886;28;20180;-75
2022/02/03 07:21:17;;;;;;;12.40;7.17;;;8.90;1.00;;;;;;5040510;28;20247;-75
2022/02/03 07:23:42;;;;;;;14.00;7.30;;;8.90;1.00;;;;;;5047912;28;20178;-75
2022/02/03 07:26:08;;;;;;;20.40;7.93;;;8.90;1.00;;;;;;5041688;28;20183;-75
2022/02/03 07:28:34;;;;;;;12.87;7.20;;;9.00;1.00;;;;;;5049620;28;20556;-75
2022/02/03 07:31:00;;;;;;;12.07;6.33;;;9.00;1.00;;;;;;5034551;28;20172;-75
2022/02/03 07:33:26;;;;;;;11.90;7.20;;;9.00;1.00;;;;;;5046517;28;20509;-75
2022/02/03 07:35:52;;;;;;;13.40;6.50;;;9.00;1.00;;;;;;5040782;28;20439;-75
2022/02/03 07:38:21;;;;;;;14.40;7.10;;;9.00;1.00;;;;;;5046684;28;20579;-75
2022/02/03 07:40:46;;;;;;;13.97;7.13;;;9.00;1.00;;;;;;5041829;28;20261;-75
2022/02/03 07:43:13;;;;;;;12.43;7.50;;;9.10;1.00;;;;;;5034115;28;20952;-75
2022/02/03 07:45:50;;;;;;;14.90;7.07;;;9.00;1.00;;;;;;5043095;28;20626;-75
2022/02/03 07:48:19;;;;;;;12.60;6.97;;;9.20;1.00;;;;;;5036809;28;20500;-75
2022/02/03 07:50:50;;;;;;;12.73;7.90;;;9.30;1.00;;;;;;5044667;28;20414;-75
2022/02/03 07:53:16;;;;;;;12.00;6.87;;;9.30;1.00;;;;;;5049998;28;20453;-76
2022/02/03 07:55:44;;;;;;;13.37;7.30;;;9.40;1.00;;;;;;5038672;28;20440;-75
2022/02/03 07:58:09;;;;;;;12.87;6.60;;;9.40;1.00;;;;;;5038035;28;20403;-75
2022/02/03 08:00:35;;;;;;;10.60;6.80;;;9.50;1.00;;;;;;5034706;28;20897;-75
2022/02/03 08:03:05;;;;;;;11.07;6.40;;;9.50;1.00;;;;;;5039222;28;20176;-76
2022/02/03 08:05:31;;;;;;;11.17;6.60;;;9.50;1.00;;;;;;5041910;28;20953;-76
2022/02/03 08:08:06;;;;;;;12.37;7.00;;;9.50;1.00;;;;;;5038401;28;20450;-76
2022/02/03 08:10:46;;;;;;;11.30;7.10;;;9.60;1.00;;;;;;5039739;28;20479;-76
2022/02/03 08:13:17;;;;;;;12.80;6.67;;;9.60;1.00;;;;;;5041428;28;20423;-76
2022/02/03 08:15:44;;;;;;;11.97;6.37;;;9.70;1.00;;;;;;5046086;28;20406;-76
2022/02/03 08:18:15;;;;;;;12.57;6.53;;;9.70;1.00;;;;;;5046883;28;20465;-76
2022/02/03 08:20:49;;;;;;;11.20;6.63;;;9.60;1.00;;;;;;5037057;28;20593;-76
2022/02/03 08:23:39;;;;;;;12.30;6.27;;;9.60;1.00;;;;;;5043793;28;20427;-77
2022/02/03 08:26:11;;;;;;;13.57;6.47;;;9.60;1.00;;;;;;5045362;28;20479;-76
2022/02/03 08:31:25;;;;;;;9.53;6.30;;;9.60;1.00;;;;;;5047730;28;20476;-76
2022/02/03 08:33:53;;;;;;;9.20;6.00;;;9.70;1.00;;;;;;5047961;28;20932;-75
2022/02/03 08:36:20;;;;;;;12.73;5.60;;;9.70;1.00;;;;;;5036614;28;20780;-75
2022/02/03 08:38:50;;;;;;;7.57;4.50;;;9.70;1.00;;;;;;5043399;28;20423;-75
2022/02/03 08:41:16;;;;;;;9.20;5.70;;;9.70;1.00;;;;;;5040474;28;20422;-76
2022/02/03 08:43:43;;;;;;;6.93;4.80;;;9.60;1.00;;;;;;5038872;28;20965;-76
2022/02/03 08:46:10;;;;;;;11.00;5.83;;;9.60;1.00;;;;;;5049581;28;20410;-75
2022/02/03 08:48:36;;;;;;;8.17;5.00;;;9.70;1.00;;;;;;5035293;28;21016;-75
2022/02/03 08:51:05;;;;;;;9.10;5.40;;;9.70;1.00;;;;;;5035829;28;20394;-75
2022/02/03 09:55:00;;;;;;;5.20;3.47;;;9.90;1.00;;;;;;5049252;28;20423;-76
2022/02/03 10:02:20;;;;;;;3.53;3.07;;;10.30;1.00;;;;;;5037810;28;20415;-76
2022/02/03 10:07:23;;;;;;;3.93;2.90;;;10.40;1.00;;;;;;5039447;28;21036;-75
2022/02/03 10:09:54;;;;;;;5.07;3.00;;;10.60;1.00;;;;;;5038500;28;20924;-75
2022/02/03 10:12:30;;;;;;;3.50;3.00;;;10.60;1.00;;;;;;5052389;28;20457;-75
2022/02/03 10:14:56;;;;;;;3.60;3.13;;;10.50;1.00;;;;;;5038724;28;20405;-75
2022/02/03 10:17:32;;;;;;;3.77;2.60;;;10.40;1.00;;;;;;5042826;28;20487;-75
2022/02/03 10:20:09;;;;;;;2.97;2.50;;;10.40;1.00;;;;;;5047765;28;20411;-75
2022/02/03 10:22:47;;;;;;;2.73;2.27;;;10.50;1.00;;;;;;5034195;28;20418;-75
2022/02/03 10:25:17;;;;;;;3.63;2.50;;;10.50;1.00;;;;;;5040176;28;20417;-75
2022/02/03 10:27:46;;;;;;;2.13;1.90;;;10.30;1.00;;;;;;5040640;28;20512;-75
2022/02/03 10:30:25;;;;;;;5.10;2.53;;;10.40;1.00;;;;;;5040974;28;20414;-75
2022/02/03 10:32:52;;;;;;;3.63;2.00;;;10.30;1.00;;;;;;5050334;28;20802;-75
2022/02/03 10:35:32;;;;;;;2.23;1.70;;;10.30;1.00;;;;;;5034335;28;20426;-75
2022/02/03 10:41:57;;;;;;;2.60;1.90;;;10.40;1.00;;;;;;5053929;28;20885;-76
2022/02/03 11:02:34;;;;;;;2.10;1.90;;;10.40;1.00;;;;;;5046468;28;20422;-76
2022/02/03 11:05:28;;;;;;;2.80;1.87;;;10.50;1.00;;;;;;5033615;28;20553;-75
2022/02/03 11:08:01;;;;;;;8.90;1.73;;;10.50;1.00;;;;;;5033247;28;20951;-75
2022/02/03 11:10:37;;;;;;;3.43;1.97;;;10.60;1.00;;;;;;5031978;28;20792;-76
2022/02/03 11:13:03;;;;;;;2.03;1.80;;;10.80;1.00;;;;;;5036654;28;20393;-75
2022/02/03 11:15:32;;;;;;;4.50;2.13;;;11.00;1.00;;;;;;5050188;28;20417;-76
2022/02/03 11:18:08;;;;;;;2.60;2.10;;;11.10;1.00;;;;;;5044017;28;20423;-76
2022/02/03 11:20:50;;;;;;;1.60;1.50;;;11.20;1.00;;;;;;5053258;28;20783;-75
2022/02/03 11:31:57;;;;;;;2.57;2.20;;;11.20;1.00;;;;;;5043551;28;20434;-75
2022/02/03 12:16:29;;;;;;;3.17;1.73;;;10.80;1.00;;;;;;5048280;28;20418;-76
2022/02/03 12:19:27;;;;;;;1.27;1.10;;;10.80;1.00;;;;;;5041611;28;20812;-75
2022/02/03 12:22:38;;;;;;;4.93;1.37;;;10.70;1.00;;;;;;5041077;28;20410;-75
2022/02/03 12:25:21;;;;;;;1.43;1.30;;;10.60;1.00;;;;;;5040753;28;21056;-75
2022/02/03 12:28:06;;;;;;;1.10;1.10;;;10.60;1.00;;;;;;5052723;28;20478;-75
2022/02/03 12:30:43;;;;;;;3.43;1.20;;;10.60;1.00;;;;;;5042545;28;20429;-75
2022/02/03 12:41:10;;;;;;;1.30;1.20;;;10.70;1.00;;;;;;5048129;28;20435;-75
2022/02/03 12:43:57;;;;;;;1.00;0.93;;;10.80;1.00;;;;;;5039954;28;20426;-76
2022/02/03 12:46:23;;;;;;;1.53;1.00;;;10.80;1.00;;;;;;5031775;28;20418;-75
2022/02/03 12:48:58;;;;;;;1.53;1.00;;;10.80;1.00;;;;;;5035997;28;20456;-76
2022/02/03 12:51:25;;;;;;;2.10;1.20;;;10.80;1.00;;;;;;5047723;28;20417;-76
2022/02/03 12:54:22;;;;;;;1.10;1.00;;;10.70;1.00;;;;;;5048053;28;20750;-77
2022/02/03 12:56:58;;;;;;;0.70;0.70;;;10.70;1.00;;;;;;4994414;28;20429;-76
2022/02/03 12:59:28;;;;;;;0.80;0.80;;;10.60;1.00;;;;;;5014849;28;20426;-76
2022/02/03 13:01:54;;;;;;;1.33;0.93;;;10.70;1.00;;;;;;5014016;28;20397;-75
2022/02/03 13:04:26;;;;;;;0.87;0.87;;;10.60;1.00;;;;;;5014550;28;20521;-75
2022/02/03 13:07:05;;;;;;;1.53;0.80;;;10.70;1.00;;;;;;5005121;28;20197;-74
2022/02/03 13:09:52;;;;;;;1.10;0.70;;;10.60;1.00;;;;;;5006935;28;20414;-75
2022/02/03 13:12:21;;;;;;;0.67;0.67;;;10.60;1.00;;;;;;5002727;28;21005;-75
2022/02/03 13:14:53;;;;;;;0.60;0.60;;;10.60;1.00;;;;;;4998145;28;20749;-75
2022/02/03 13:17:24;;;;;;;0.87;0.60;;;10.70;1.00;;;;;;4990415;28;20801;-74
2022/02/03 13:22:27;;;;;;;2.20;0.80;;;;;;;;;;5008271;28;20526;-76
2022/02/03 13:27:36;;;;;;;0.60;0.60;;;10.70;1.00;;;;;;5013050;28;20467;-76
2022/02/03 13:30:16;;;;;;;0.90;0.70;;;10.70;1.00;;;;;;5013105;28;20904;-75
2022/02/03 13:32:49;;;;;;;0.70;0.70;;;10.80;1.00;;;;;;5013167;28;20679;-76
2022/02/03 13:35:25;;;;;;;0.60;0.60;;;10.80;1.00;;;;;;5048407;28;20416;-75
2022/02/03 13:37:53;;;;;;;0.60;0.60;;;10.80;1.00;;;;;;5042151;28;20917;-75
2022/02/03 13:40:20;;;;;;;0.50;0.50;;;10.80;1.00;;;;;;5042408;28;20830;-75
2022/02/03 13:42:49;;;;;;;1.17;0.70;;;10.90;1.00;;;;;;5040188;28;20408;-75
2022/02/03 13:45:18;;;;;;;0.50;0.50;;;10.80;1.00;;;;;;5046047;28;20402;-75
2022/02/03 13:47:44;;;;;;;0.80;0.80;;;10.80;1.00;;;;;;5046542;28;20478;-75
2022/02/03 13:50:20;;;;;;;0.77;0.77;;;10.80;1.00;;;;;;5048887;28;21014;-75
2022/02/03 14:15:15;;;;;;;1.13;1.00;;;10.90;1.00;;;;;;5050478;28;20720;-74
2022/02/03 14:28:22;;;;;;;0.80;0.80;;;10.70;1.00;;;;;;5034052;28;20546;-75
2022/02/03 14:30:53;;;;;;;1.37;1.07;;;10.70;1.00;;;;;;5037895;28;20470;-75
2022/02/03 14:33:27;;;;;;;1.20;1.00;;;10.60;1.00;;;;;;5033920;28;20938;-75
2022/02/03 14:35:58;;;;;;;1.00;0.90;;;10.50;1.00;;;;;;5034193;28;20448;-74
2022/02/03 14:38:29;;;;;;;1.10;1.00;;;;;;;;;;5033918;28;20401;-79
2022/02/03 14:41:05;;;;;;;1.80;0.87;;;10.50;1.00;;;;;;5034063;28;20411;-83
2022/02/03 14:43:31;;;;;;;0.93;0.93;;;10.50;1.00;;;;;;5033640;28;20513;-74
2022/02/03 14:45:59;;;;;;;1.40;1.00;;;10.40;1.00;;;;;;5035102;28;20447;-76
2022/02/03 14:48:24;;;;;;;1.60;1.00;;;10.40;1.00;;;;;;5033575;28;20639;-73
2022/02/03 14:50:54;;;;;;;0.90;0.90;;;;;;;;;;5033685;28;20506;-75
2022/02/03 14:53:29;;;;;;;2.97;0.80;;;10.40;1.00;;;;;;5040314;28;20590;-74
2022/02/03 14:58:40;;;;;;;0.90;0.90;;;;;;;;;;5038892;28;20464;-75
2022/02/03 15:01:05;;;;;;;1.73;1.17;;;10.20;1.00;;;;;;5048469;28;20510;-76
2022/02/03 15:03:32;;;;;;;0.80;0.80;;;;;;;;;;5009502;28;20441;-74
2022/02/03 15:06:09;;;;;;;1.10;1.00;;;10.10;1.00;;;;;;5031712;28;20237;-75
2022/02/03 15:11:09;;;;;;;3.50;2.50;;;10.00;1.00;;;;;;5047737;28;20472;-75
2022/02/03 15:16:01;;;;;;;4.40;2.30;;;9.80;1.00;;;;;;5039550;28;20407;-76
2022/02/03 15:18:30;;;;;;;3.90;2.50;;;9.70;1.00;;;;;;5040223;28;20871;-75
2022/02/03 15:20:56;;;;;;;2.87;2.47;;;9.70;1.00;;;;;;5040359;28;20453;-76
2022/02/03 15:23:23;;;;;;;3.00;2.80;;;9.70;1.00;;;;;;5037369;28;20428;-76
2022/02/03 15:25:49;;;;;;;3.03;2.73;;;9.80;1.00;;;;;;5046451;28;20541;-75
2022/02/03 15:28:16;;;;;;;3.90;2.67;;;9.70;1.00;;;;;;5046222;28;20552;-75
2022/02/03 15:30:42;;;;;;;2.97;2.70;;;9.70;1.00;;;;;;5046521;28;20639;-75
2022/02/03 15:33:07;;;;;;;2.80;2.43;;;9.60;1.00;;;;;;5045173;28;20453;-75
2022/02/03 15:35:40;;;;;;;2.30;1.90;;;9.50;1.00;;;;;;5043725;28;20196;-75
2022/02/03 15:38:09;;;;;;;3.23;2.20;;;9.50;1.00;;;;;;5044187;28;20766;-75
2022/02/03 15:40:37;;;;;;;2.57;1.90;;;9.50;1.00;;;;;;5035756;28;20504;-75
2022/02/03 15:45:51;;;;;;;2.93;1.83;;;9.40;1.00;;;;;;5045365;28;20422;-75
2022/02/03 15:56:29;;;;;;;2.20;1.60;;;9.20;1.00;;;;;;5037232;28;20887;-75
2022/02/03 16:17:23;;;;;;;0.93;0.90;;;9.10;1.00;;;;;;5033855;28;20413;-75
2022/02/03 16:19:58;;;;;;;1.20;1.10;;;9.10;1.00;;;;;;5041593;28;20417;-76
2022/02/03 16:25:05;;;;;;;1.13;1.07;;;8.80;1.00;;;;;;5045430;28;20431;-74
2022/02/03 16:54:21;;;;;;;1.30;0.77;;;8.80;1.00;;;;;;5051839;28;20542;-76
2022/02/03 16:56:51;;;;;;;1.07;0.93;;;8.80;1.00;;;;;;5046092;28;20650;-76
2022/02/03 16:59:17;;;;;;;2.77;1.03;;;8.80;1.00;;;;;;5055553;28;20175;-76
2022/02/03 17:01:42;;;;;;;1.23;1.10;;;8.80;1.00;;;;;;5052802;28;20517;-76
2022/02/03 17:04:08;;;;;;;0.90;0.90;;;8.80;1.00;;;;;;5049213;28;20176;-76
2022/02/03 17:06:34;;;;;;;2.30;1.17;;;8.80;1.00;;;;;;5047082;28;20210;-76
2022/02/03 17:08:59;;;;;;;1.23;1.13;;;8.80;1.00;;;;;;5045783;28;20200;-76
2022/02/03 17:11:25;;;;;;;2.07;1.77;;;8.80;1.00;;;;;;5050418;28;20251;-76
2022/02/03 17:13:50;;;;;;;1.70;1.60;;;8.80;1.00;;;;;;5037208;28;20186;-76
2022/02/03 17:16:22;;;;;;;0.90;0.90;;;8.80;1.00;;;;;;5048657;28;20296;-76
2022/02/03 17:18:50;;;;;;;1.70;1.60;;;8.80;1.00;;;;;;5050029;28;20202;-77
2022/02/03 17:21:17;;;;;;;1.83;1.60;;;8.80;1.00;;;;;;5040276;28;20972;-76
2022/02/03 17:23:43;;;;;;;2.20;1.00;;;8.80;1.00;;;;;;5048966;28;20429;-73
2022/02/03 17:26:16;;;;;;;0.90;0.90;;;8.80;1.00;;;;;;5051439;28;20433;-77
2022/02/03 17:31:27;;;;;;;0.50;0.50;;;8.80;1.00;;;;;;5042938;28;20414;-76
2022/02/03 18:25:57;;;;;;;1.80;1.70;;;8.90;1.00;;;;;;5031632;28;20440;-76
2022/02/03 18:31:18;;;;;;;3.00;1.90;;;8.90;1.00;;;;;;5031800;28;20546;-75
2022/02/03 18:34:07;;;;;;;1.50;1.40;;;8.80;1.00;;;;;;5030001;28;20425;-75
2022/02/03 18:55:10;;;;;;;2.73;1.60;;;8.90;1.00;;;;;;5034179;28;20454;-78
2022/02/03 18:57:45;;;;;;;1.93;1.83;;;8.80;1.00;;;;;;5041000;28;20430;-77
2022/02/03 20:10:19;;;;;;;4.30;2.03;;;8.60;1.00;;;;;;4993733;28;20775;-75
2022/02/03 20:12:39;;;;;;;2.47;2.10;;;8.60;1.00;;;;;;4988826;28;20408;-75
2022/02/03 20:15:05;;;;;;;2.30;2.10;;;8.60;1.00;;;;;;4991641;28;20444;-75
2022/02/03 20:17:31;;;;;;;3.40;2.10;;;8.50;1.00;;;;;;4993239;28;20316;-76
2022/02/03 20:19:57;;;;;;;2.33;1.90;;;8.60;1.00;;;;;;4993831;28;20421;-75
2022/02/03 20:22:28;;;;;;;2.17;1.97;;;8.60;1.00;;;;;;4976382;28;20440;-75
2022/02/03 20:24:54;;;;;;;3.30;2.30;;;8.60;1.00;;;;;;4984154;28;20268;-76
2022/02/03 20:27:20;;;;;;;11.73;2.50;;;8.70;1.00;;;;;;4993456;28;20470;-76
2022/02/03 20:29:46;;;;;;;3.70;2.40;;;8.70;1.00;;;;;;4981081;28;20931;-77
2022/02/03 20:32:11;;;;;;;2.03;1.70;;;8.70;1.00;;;;;;4991548;28;20284;-77
2022/02/03 20:34:37;;;;;;;3.33;1.93;;;8.60;1.00;;;;;;4982093;28;20266;-76
2022/02/03 20:37:03;;;;;;;2.40;2.20;;;8.70;1.00;;;;;;4977566;28;20198;-76
2022/02/03 20:39:29;;;;;;;2.63;2.23;;;8.60;1.00;;;;;;4987170;28;20271;-76
2022/02/03 20:41:54;;;;;;;2.43;2.23;;;8.60;1.00;;;;;;4994056;28;20466;-76
2022/02/03 20:44:20;;;;;;;2.53;2.20;;;8.60;1.00;;;;;;4979867;28;20622;-76
2022/02/03 20:46:46;;;;;;;3.07;2.40;;;8.60;1.00;;;;;;5038572;28;20176;-77
2022/02/03 20:49:11;;;;;;;4.37;2.30;;;8.70;1.00;;;;;;5052153;28;20729;-77
2022/02/03 20:51:37;;;;;;;3.27;2.57;;;8.60;1.00;;;;;;5053015;28;20259;-76
2022/02/03 20:54:03;;;;;;;3.77;2.37;;;8.60;1.00;;;;;;5050146;28;20221;-76
2022/02/03 20:56:29;;;;;;;3.50;2.30;;;8.60;1.00;;;;;;5053698;28;20417;-75
2022/02/03 20:58:58;;;;;;;3.17;2.73;;;8.60;1.00;;;;;;5048786;28;20419;-75
2022/02/03 21:01:28;;;;;;;5.30;3.10;;;8.60;1.00;;;;;;5046535;28;20449;-75
2022/02/03 21:04:02;;;;;;;5.03;3.40;;;8.60;1.00;;;;;;5044319;28;20419;-75
2022/02/03 21:06:27;;;;;;;3.50;3.00;;;8.50;1.00;;;;;;5051360;28;20431;-75
2022/02/03 21:08:56;;;;;;;3.80;2.40;;;8.50;1.00;;;;;;5041943;28;20454;-75
2022/02/03 21:11:21;;;;;;;4.73;3.20;;;8.50;1.00;;;;;;5046536;28;20523;-75
2022/02/03 21:13:47;;;;;;;4.93;3.13;;;8.50;1.00;;;;;;5054920;28;20500;-75
2022/02/03 21:16:14;;;;;;;4.40;2.43;;;8.50;1.00;;;;;;5041581;28;20567;-76
2022/02/03 21:18:42;;;;;;;5.10;3.10;;;8.50;1.00;;;;;;5042453;28;20665;-76
2022/02/03 21:21:08;;;;;;;4.60;2.70;;;8.50;1.00;;;;;;5035602;28;20926;-75
2022/02/03 21:23:35;;;;;;;4.50;3.23;;;8.40;1.00;;;;;;5048811;28;20510;-75
2022/02/03 21:26:04;;;;;;;3.73;2.87;;;8.40;1.00;;;;;;5037005;28;20407;-75
2022/02/03 21:28:33;;;;;;;6.70;3.10;;;8.40;1.00;;;;;;5048185;28;20807;-75
2022/02/03 21:31:01;;;;;;;3.20;2.90;;;8.40;1.00;;;;;;5042827;28;20425;-75
2022/02/03 21:33:34;;;;;;;5.67;3.33;;;8.40;1.00;;;;;;5035178;28;20465;-76
2022/02/03 21:36:08;;;;;;;4.23;3.10;;;8.40;1.00;;;;;;5050226;28;20486;-76
2022/02/03 21:38:35;;;;;;;6.87;2.87;;;8.30;1.00;;;;;;5051509;28;20425;-76
2022/02/03 21:41:03;;;;;;;4.27;2.83;;;8.40;1.00;;;;;;5046908;28;20410;-75
2022/02/03 21:43:28;;;;;;;4.00;2.40;;;8.30;1.00;;;;;;5036389;28;20419;-75
2022/02/03 21:45:54;;;;;;;4.17;2.83;;;8.40;1.00;;;;;;5034952;28;20553;-75
2022/02/03 21:48:21;;;;;;;2.50;2.30;;;8.30;1.00;;;;;;5047756;28;20555;-75
2022/02/03 21:50:46;;;;;;;3.10;2.60;;;8.30;1.00;;;;;;5043501;28;20167;-76
2022/02/03 21:53:18;;;;;;;3.30;2.97;;;8.30;1.00;;;;;;5038550;28;20418;-76
2022/02/03 21:55:45;;;;;;;3.90;2.97;;;8.30;1.00;;;;;;5044354;28;20255;-75
2022/02/03 21:58:12;;;;;;;4.57;3.30;;;8.30;1.00;;;;;;5039059;28;20441;-76
2022/02/03 22:00:38;;;;;;;3.50;2.60;;;9.30;1.00;;;;;;5043232;28;20800;-76
2022/02/03 22:03:04;;;;;;;3.83;2.73;;;8.30;1.00;;;;;;5040762;28;20418;-76
2022/02/03 22:05:32;;;;;;;3.73;3.23;;;8.40;1.00;;;;;;5053228;28;20172;-75
2022/02/03 22:08:03;;;;;;;6.80;3.40;;;8.30;1.00;;;;;;5041150;28;20500;-75
2022/02/03 22:10:29;;;;;;;3.63;2.67;;;8.30;1.00;;;;;;5044567;28;20407;-76
2022/02/03 22:12:55;;;;;;;6.33;3.10;;;8.30;1.00;;;;;;5047813;28;20502;-76
2022/02/03 22:15:21;;;;;;;4.30;3.10;;;8.40;1.00;;;;;;5041403;28;20498;-76
2022/02/03 22:17:48;;;;;;;3.90;3.27;;;8.40;1.00;;;;;;5033255;28;20530;-76
2022/02/03 22:20:39;;;;;;;4.07;2.83;;;8.40;1.00;;;;;;5034772;28;20427;-76
2022/02/03 22:44:53;;;;;;;3.57;2.80;;;8.40;1.00;;;;;;4998509;28;20424;-77
2022/02/03 22:49:36;;;;;;;3.77;3.10;;;8.50;1.00;;;;;;5000833;28;20409;-77
2022/02/03 22:52:02;;;;;;;4.10;2.67;;;8.40;1.00;;;;;;4997455;28;20439;-76
2022/02/03 22:54:27;;;;;;;3.43;2.90;;;8.50;1.00;;;;;;5008673;28;20482;-77
2022/02/03 22:56:53;;;;;;;4.73;3.23;;;8.40;1.00;;;;;;5001123;28;20788;-76
2022/02/03 23:01:53;;;;;;;3.53;2.90;;;8.40;1.00;;;;;;4992286;28;20177;-76
2022/02/03 23:04:19;;;;;;;4.27;2.60;;;8.40;1.00;;;;;;4994529;28;20439;-76
2022/02/03 23:06:45;;;;;;;5.70;2.97;;;9.80;1.00;;;;;;4992892;28;20264;-76
2022/02/03 23:09:32;;;;;;;4.07;2.90;;;8.40;1.00;;;;;;4985943;28;20200;-76
2022/02/03 23:12:12;;;;;;;3.67;2.60;;;8.40;1.00;;;;;;5038363;28;20426;-76
2022/02/03 23:20:16;;;;;;;2.97;2.60;;;8.50;1.00;;;;;;5040619;28;20469;-76
2022/02/03 23:22:42;;;;;;;3.77;2.60;;;8.40;1.00;;;;;;5045513;28;20916;-76
2022/02/03 23:25:15;;;;;;;3.57;2.93;;;8.40;1.00;;;;;;5047443;28;20436;-76
2022/02/03 23:30:18;;;;;;;5.77;3.30;;;8.30;1.00;;;;;;5033235;28;20573;-76
2022/02/03 23:32:44;;;;;;;3.83;2.83;;;8.40;1.00;;;;;;5035686;28;20458;-76
2022/02/03 23:35:23;;;;;;;4.40;2.70;;;8.30;1.00;;;;;;5043676;28;20936;-76
2022/02/03 23:38:20;;;;;;;3.13;2.40;;;8.30;1.00;;;;;;5042810;28;20442;-76
2022/02/03 23:51:50;;;;;;;4.97;2.80;;;8.30;1.00;;;;;;5040589;28;20422;-76
